Hovedside
METAR-TAF:

METAR-TAF

Lufthavner :

Esbjerg, Danmark

Esbjerg lufthavn

breddegrad: 55-32N, lengdegrad: 008-34E, høyde over havet: 30 m

Gjeldene værobservasjon

Denne rapporten ble laget for 27 minutter siden, klokken 19:50 UTC
Vind 10 kt fra Vest-sørvest
Temperatur 14°C
Luftfuktighet 94%
Trykk 1015 hPa
Sikt: 5000 m

METAR: EKEB 281950Z AUTO 24010KT 5000NDV OVC005/// 14/13 Q1015

Tid: 22:17 (20:17 UTC)

Varsel

Denne rapporten ble laget for 3 timer og 11 minutter siden, klokken 17:06 UTC
Varsel gyldig fra 28. klokken 18 UTC til 28. klokken 22 UTC
Vind 12 kt fra Vest-sørvest
Sikt 10 km eller mer
Brutte skyer i en høyde av 800 ft
Midlertidig
fra 28. klokken 18 UTC til 28. klokken 22 UTC
Sikt: 4000 m
Brutte skyer i en høyde av 400 ft
dis

TAF: EKEB 281706Z 2818/2822 24012KT 9999 BKN008 TEMPO 2818/2822 4000 BR BKN004

Værobservasjoner og værvarsel for over 4000 flyplasser (METAR- og TAF-rapporter).

Tilgjengelige stasjoner er representert av de røde og gule prikkene på kartet.

Hold musepekeren over prikken for å se navnet på stasjonen.

Klikk så for å se værobservasjoner og -varsler.

For å forandre kartet kan du klikke på den grønne knappen med svart kryss for å zoome inn, på den grønne knappen med strek for å zoome ut, eller på de grønne pilene for å se tilstøtende kart.


METAR-TAF: